Bellview, Illinois
Current Conditions -  °F | °C
As of 4:54 AM on Saturday 25 Oct 2014 (Local Time) from KPIA Reporting Station
Broken Clouds Broken Clouds  
Wind Chill: 12°   Ceiling: 1100
Heat Index: 12°   Visibility: 8mi
Dew Point:   Wind: 0mph
Humidity: 86%   Direction: NA
Pressure: 29.96"   Gusts: NA
Location:  40.7064°N, 89.6585°W
Report Text: KPIA 250954Z 00000KT 8SM BKN011 12/09 A2996 RMK AO2 SLP144 T01170094
Loading
Personal Weather Stations






























Interactive Weather Map
Tropical Storm Tracking
New forecast layout! Learn more

10-Day Weather Forecast

Advertisements
Track Severe Weather on mobile